createdAt,value
2019-06-08T00:00:16.767Z,116.80
2019-06-08T00:02:55.850Z,110.15
2019-06-08T00:05:32.120Z,112.35
2019-06-08T00:08:10.911Z,107.75
2019-06-08T00:10:46.988Z,107.50
2019-06-08T00:13:24.750Z,112.30
2019-06-08T00:16:00.648Z,108.03
2019-06-08T00:18:43.158Z,99.72
2019-06-08T00:21:24.053Z,99.20
2019-06-08T00:24:03.054Z,107.07
2019-06-08T00:26:38.127Z,104.55
2019-06-08T00:29:22.905Z,97.50
2019-06-08T00:31:57.038Z,98.37
2019-06-08T00:34:34.545Z,94.17
2019-06-08T00:37:15.234Z,93.05
2019-06-08T00:39:52.608Z,94.45
2019-06-08T00:42:29.355Z,88.15
2019-06-08T00:47:51.086Z,85.03
2019-06-08T00:50:29.542Z,82.08
2019-06-08T00:53:06.342Z,76.45
2019-06-08T00:55:42.141Z,69.58
2019-06-08T00:58:26.318Z,75.90
2019-06-08T01:01:01.909Z,72.37
2019-06-08T01:03:39.660Z,58.25
2019-06-08T01:06:19.062Z,66.85
2019-06-08T01:08:55.998Z,68.92
2019-06-08T01:11:32.514Z,56.73
2019-06-08T01:14:08.505Z,64.67
2019-06-08T01:16:50.060Z,53.52
2019-06-08T01:19:29.616Z,58.90
2019-06-08T01:22:07.712Z,58.92
2019-06-08T01:24:47.622Z,63.98
2019-06-08T01:27:26.063Z,69.30
2019-06-08T01:30:10.934Z,62.65
2019-06-08T01:32:50.381Z,62.48
2019-06-08T01:35:26.919Z,66.72
2019-06-08T01:38:12.188Z,63.35
2019-06-08T01:43:43.205Z,63.60
2019-06-08T01:46:21.760Z,55.92
2019-06-08T01:49:00.003Z,58.20
2019-06-08T01:51:52.826Z,58.78
2019-06-08T01:54:38.291Z,55.98
2019-06-08T01:57:23.152Z,58.68
2019-06-08T01:59:59.067Z,62.03
2019-06-08T02:05:34.515Z,70.08
2019-06-08T02:08:12.241Z,72.90
2019-06-08T02:10:54.656Z,65.92
2019-06-08T02:13:38.006Z,58.40
2019-06-08T02:16:15.233Z,66.45
2019-06-08T02:18:56.996Z,66.45
2019-06-08T02:21:35.290Z,64.92
2019-06-08T02:24:20.513Z,67.62
2019-06-08T02:27:00.111Z,66.75
2019-06-08T02:29:47.046Z,61.30
2019-06-08T02:32:31.628Z,57.27
2019-06-08T02:35:11.532Z,70.25
2019-06-08T02:37:52.679Z,53.68
2019-06-08T02:40:40.316Z,56.42
2019-06-08T02:45:56.202Z,60.30
2019-06-08T02:49:00.323Z,65.05
2019-06-08T02:51:19.678Z,58.38
2019-06-08T02:53:58.786Z,58.48
2019-06-08T02:56:39.287Z,57.45
2019-06-08T02:59:26.819Z,63.95
2019-06-08T03:02:04.607Z,78.45
2019-06-08T03:04:45.200Z,62.25
2019-06-08T03:10:15.241Z,59.25
2019-06-08T03:12:57.266Z,64.42
2019-06-08T03:15:53.829Z,54.27
2019-06-08T03:18:33.491Z,59.13
2019-06-08T03:21:07.680Z,54.58
2019-06-08T03:23:45.539Z,57.65
2019-06-08T03:26:27.095Z,60.33
2019-06-08T03:29:06.664Z,56.25
2019-06-08T03:31:54.325Z,64.67
2019-06-08T03:34:21.647Z,56.60
2019-06-08T03:37:01.851Z,59.95
2019-06-08T03:39:43.122Z,58.70
2019-06-08T03:42:21.267Z,55.30
2019-06-08T03:44:58.821Z,54.08
2019-06-08T03:47:36.805Z,49.75
2019-06-08T03:50:21.085Z,54.55
2019-06-08T03:53:01.238Z,51.00
2019-06-08T03:55:54.691Z,59.20
2019-06-08T03:58:45.140Z,58.55
2019-06-08T04:01:26.319Z,61.68
2019-06-08T04:04:19.607Z,57.78
2019-06-08T04:06:56.711Z,57.15
2019-06-08T04:09:37.619Z,57.83
2019-06-08T04:12:21.861Z,61.68
2019-06-08T04:15:05.737Z,57.90
2019-06-08T04:17:46.527Z,74.37
2019-06-08T04:20:37.857Z,58.42
2019-06-08T04:23:13.603Z,57.40
2019-06-08T04:25:52.388Z,55.83
2019-06-08T04:28:28.084Z,55.95
2019-06-08T04:31:07.761Z,55.65
2019-06-08T04:33:51.442Z,67.27
2019-06-08T04:36:29.801Z,67.32
2019-06-08T04:39:25.189Z,66.95
2019-06-08T04:42:03.652Z,66.53
2019-06-08T04:44:44.653Z,69.20
2019-06-08T04:47:24.315Z,67.58
2019-06-08T04:50:20.923Z,67.30
2019-06-08T04:52:49.654Z,65.87
2019-06-08T04:55:33.065Z,71.42
2019-06-08T04:58:11.131Z,65.37
2019-06-08T05:03:47.783Z,54.20
2019-06-08T05:06:45.202Z,65.90
2019-06-08T05:09:21.405Z,65.12
2019-06-08T05:12:14.291Z,66.95
2019-06-08T05:17:49.679Z,62.35
2019-06-08T05:20:38.184Z,59.63
2019-06-08T05:23:05.565Z,58.78
2019-06-08T05:25:51.767Z,65.20
2019-06-08T05:28:45.530Z,55.70
2019-06-08T05:31:22.230Z,59.03
2019-06-08T05:36:47.457Z,46.40
2019-06-08T05:39:27.992Z,59.13
2019-06-08T05:45:00.995Z,60.48
2019-06-08T05:47:43.810Z,60.05
2019-06-08T05:50:21.256Z,65.60
2019-06-08T05:53:00.142Z,54.05
2019-06-08T05:55:39.698Z,50.70
2019-06-08T05:58:17.909Z,51.53
2019-06-08T06:00:59.227Z,59.45
2019-06-08T06:03:42.292Z,53.20
2019-06-08T06:06:18.130Z,54.08
2019-06-08T06:14:51.276Z,59.00
2019-06-08T06:23:28.384Z,59.33
2019-06-08T06:26:22.799Z,67.75
2019-06-08T06:29:16.035Z,58.63
2019-06-08T06:32:03.540Z,65.08
2019-06-08T06:34:47.839Z,57.00
2019-06-08T06:37:43.769Z,60.88
2019-06-08T06:40:22.708Z,50.98
2019-06-08T06:46:12.685Z,50.67
2019-06-08T06:48:52.497Z,59.08
2019-06-08T06:51:34.055Z,59.95
2019-06-08T06:57:13.446Z,62.88
2019-06-08T07:02:47.609Z,55.30
2019-06-08T07:11:24.754Z,52.50
2019-06-08T07:14:13.787Z,59.98
2019-06-08T07:19:46.377Z,58.73
2019-06-08T07:22:28.912Z,50.30
2019-06-08T07:28:17.428Z,51.58
2019-06-08T07:31:04.352Z,45.65
2019-06-08T07:33:41.162Z,46.33
2019-06-08T07:39:17.779Z,47.27
2019-06-08T07:41:55.966Z,48.13
2019-06-08T07:44:35.793Z,43.87
2019-06-08T07:47:20.324Z,47.67
2019-06-08T07:53:07.667Z,51.70
2019-06-08T07:55:53.507Z,53.90
2019-06-08T07:58:49.754Z,48.90
2019-06-08T08:01:36.255Z,47.75
2019-06-08T08:04:31.617Z,54.45
2019-06-08T08:07:11.531Z,54.13
2019-06-08T08:10:01.018Z,50.20
2019-06-08T08:18:28.912Z,56.58
2019-06-08T08:21:21.305Z,57.53
2019-06-08T08:24:01.601Z,56.53
2019-06-08T08:26:44.651Z,59.98
2019-06-08T08:32:15.577Z,61.13
2019-06-08T08:35:00.334Z,53.30
2019-06-08T08:37:38.044Z,61.23
2019-06-08T08:40:28.746Z,54.23
2019-06-08T08:43:09.686Z,60.63
2019-06-08T08:45:56.031Z,64.82
2019-06-08T08:48:45.422Z,73.20
2019-06-08T08:51:28.427Z,64.37
2019-06-08T08:57:08.289Z,58.52
2019-06-08T08:59:50.282Z,55.28
2019-06-08T09:02:29.542Z,49.08
2019-06-08T09:05:09.014Z,53.78
2019-06-08T09:07:51.244Z,61.05
2019-06-08T09:10:44.117Z,57.10
2019-06-08T09:13:28.338Z,54.38
2019-06-08T09:16:04.543Z,58.83
2019-06-08T09:18:52.195Z,61.58
2019-06-08T09:21:34.671Z,59.30
2019-06-08T09:24:18.686Z,56.28
2019-06-08T09:27:04.237Z,54.88
2019-06-08T09:32:57.169Z,70.10
2019-06-08T09:35:49.940Z,65.22
2019-06-08T09:38:35.508Z,53.17
2019-06-08T09:41:22.011Z,62.30
2019-06-08T09:44:10.724Z,52.13
2019-06-08T09:46:53.594Z,49.95
2019-06-08T09:49:48.049Z,49.03
2019-06-08T09:53:06.264Z,51.77
2019-06-08T10:01:28.564Z,50.80
2019-06-08T10:04:08.525Z,83.17
2019-06-08T10:09:43.212Z,56.28
2019-06-08T10:12:28.233Z,51.98
2019-06-08T10:15:18.670Z,60.92
2019-06-08T10:18:03.287Z,97.85
2019-06-08T10:20:48.008Z,61.37
2019-06-08T10:23:31.885Z,58.92
2019-06-08T10:26:06.523Z,74.72
2019-06-08T10:29:02.162Z,59.25
2019-06-08T10:31:43.038Z,58.68
2019-06-08T10:34:20.962Z,59.55
2019-06-08T10:37:12.554Z,59.33
2019-06-08T10:39:56.426Z,52.70
2019-06-08T10:42:39.801Z,56.40
2019-06-08T10:45:15.581Z,54.48
2019-06-08T10:48:02.622Z,57.45
2019-06-08T10:50:42.405Z,61.60
2019-06-08T10:53:28.609Z,75.72
2019-06-08T11:02:14.744Z,57.17
2019-06-08T11:04:58.798Z,61.68
2019-06-08T11:13:22.228Z,61.68
2019-06-08T11:16:12.801Z,52.35
2019-06-08T11:18:53.463Z,60.60
2019-06-08T11:21:43.502Z,57.88
2019-06-08T11:24:24.495Z,65.32
2019-06-08T11:27:01.265Z,66.95
2019-06-08T11:29:48.238Z,58.15
2019-06-08T11:35:28.558Z,56.28
2019-06-08T11:38:02.125Z,61.48
2019-06-08T11:40:38.317Z,56.95
2019-06-08T11:43:14.322Z,56.77
2019-06-08T11:48:48.478Z,56.05
2019-06-08T11:51:29.764Z,57.08
2019-06-08T11:54:19.237Z,48.98
2019-06-08T11:56:57.722Z,53.05
2019-06-08T11:59:44.503Z,55.70
2019-06-08T12:02:28.514Z,54.30
2019-06-08T12:05:12.400Z,56.50
2019-06-08T12:13:47.749Z,54.67
2019-06-08T12:16:32.966Z,61.35
2019-06-08T12:19:20.947Z,59.55
2019-06-08T12:22:11.626Z,57.03
2019-06-08T12:24:58.453Z,50.52
2019-06-08T12:30:45.070Z,55.25
2019-06-08T12:33:22.809Z,58.48
2019-06-08T12:44:58.848Z,63.08
2019-06-08T12:47:38.589Z,57.55
2019-06-08T12:50:20.121Z,57.88
2019-06-08T12:53:11.202Z,57.50
2019-06-08T12:58:47.635Z,65.37
2019-06-08T13:01:28.103Z,61.70
2019-06-08T13:07:09.745Z,62.10
2019-06-08T13:09:48.162Z,67.75
2019-06-08T13:18:21.475Z,65.37
2019-06-08T13:23:50.488Z,70.55
2019-06-08T13:26:44.740Z,63.80
2019-06-08T13:29:27.892Z,61.65
2019-06-08T13:32:07.873Z,68.97
2019-06-08T13:43:30.706Z,66.00
2019-06-08T13:55:00.176Z,65.12
2019-06-08T14:00:59.743Z,69.37
2019-06-08T14:03:41.818Z,61.88
2019-06-08T14:06:21.710Z,64.10
2019-06-08T14:14:58.251Z,54.10
2019-06-08T14:17:32.022Z,60.08
2019-06-08T14:20:19.320Z,68.78
2019-06-08T14:31:40.885Z,63.98
2019-06-08T14:40:15.659Z,67.37
2019-06-08T14:43:01.346Z,60.67
2019-06-08T14:54:35.039Z,70.95
2019-06-08T14:57:30.845Z,74.40
2019-06-08T15:00:21.263Z,76.90
2019-06-08T15:03:01.946Z,75.37
2019-06-08T15:11:47.924Z,81.17
2019-06-08T15:17:28.881Z,67.55
2019-06-08T15:22:59.048Z,74.92
2019-06-08T15:25:45.494Z,72.15
2019-06-08T15:34:14.698Z,73.78
2019-06-08T15:42:48.225Z,72.40
2019-06-08T15:45:41.809Z,69.12
2019-06-08T15:48:30.985Z,68.05
2019-06-08T15:56:53.954Z,64.07
2019-06-08T16:02:40.246Z,79.27
2019-06-08T16:05:19.379Z,80.55
2019-06-08T16:16:46.522Z,71.72
2019-06-08T16:19:35.965Z,73.22
2019-06-08T16:22:10.935Z,80.15
2019-06-08T16:27:50.090Z,75.25
2019-06-08T16:45:00.027Z,73.97
2019-06-08T16:47:46.997Z,75.20
2019-06-08T16:50:40.431Z,68.65
2019-06-08T16:53:27.353Z,75.17
2019-06-08T16:56:15.440Z,73.83
2019-06-08T16:58:59.507Z,69.10
2019-06-08T17:01:44.390Z,67.75
2019-06-08T17:07:22.861Z,64.05
2019-06-08T17:10:03.381Z,68.23
2019-06-08T17:15:40.320Z,69.53
2019-06-08T17:21:15.090Z,76.75
2019-06-08T17:23:54.040Z,65.83
2019-06-08T17:26:43.466Z,69.77
2019-06-08T17:32:13.456Z,76.90
2019-06-08T17:34:55.462Z,65.05
2019-06-08T17:37:38.137Z,70.42
2019-06-08T17:40:23.591Z,70.28
2019-06-08T17:42:59.440Z,78.00
2019-06-08T17:45:46.570Z,75.87
2019-06-08T17:48:30.295Z,71.72
2019-06-08T17:51:23.863Z,73.10
2019-06-08T17:54:02.528Z,68.83
2019-06-08T17:59:37.477Z,71.62
2019-06-08T18:02:25.066Z,74.12
2019-06-08T18:05:03.286Z,71.17
2019-06-08T18:07:48.925Z,78.87
2019-06-08T18:10:24.335Z,79.25
2019-06-08T18:13:08.642Z,75.20
2019-06-08T18:15:48.148Z,70.60
2019-06-08T18:18:28.131Z,71.87
2019-06-08T18:21:04.829Z,72.27
2019-06-08T18:23:45.007Z,72.35
2019-06-08T18:29:18.255Z,73.85
2019-06-08T18:32:02.295Z,81.85
2019-06-08T18:34:42.165Z,76.12
2019-06-08T18:37:19.073Z,74.80
2019-06-08T18:39:58.033Z,72.65
2019-06-08T18:42:45.692Z,74.10
2019-06-08T18:45:27.794Z,73.42
2019-06-08T18:48:07.233Z,81.37
2019-06-08T18:50:50.328Z,78.55
2019-06-08T18:53:27.315Z,70.83
2019-06-08T18:56:09.851Z,75.20
2019-06-08T18:58:58.160Z,78.22
2019-06-08T19:01:39.418Z,79.70
2019-06-08T19:04:13.388Z,75.50
2019-06-08T19:06:51.726Z,90.57
2019-06-08T19:09:27.685Z,82.30
2019-06-08T19:12:04.744Z,78.85
2019-06-08T19:14:43.534Z,79.53
2019-06-08T19:17:19.248Z,81.15
2019-06-08T19:19:57.786Z,80.38
2019-06-08T19:22:33.511Z,75.30
2019-06-08T19:25:10.272Z,80.75
2019-06-08T19:27:52.960Z,80.12
2019-06-08T19:32:59.614Z,82.15
2019-06-08T19:35:35.417Z,77.05
2019-06-08T19:38:18.140Z,89.10
2019-06-08T19:40:57.230Z,86.25
2019-06-08T19:43:33.293Z,89.47
2019-06-08T19:46:10.714Z,82.80
2019-06-08T19:48:53.218Z,92.02
2019-06-08T19:51:24.793Z,84.60
2019-06-08T19:54:00.599Z,83.82
2019-06-08T19:56:38.583Z,80.03
2019-06-08T19:59:13.639Z,79.15
2019-06-08T20:01:54.998Z,84.20
2019-06-08T20:04:29.700Z,76.87
2019-06-08T20:07:08.848Z,83.80
2019-06-08T20:12:18.485Z,79.53
2019-06-08T20:14:53.811Z,82.78
2019-06-08T20:17:30.824Z,87.67
2019-06-08T20:20:10.683Z,92.12
2019-06-08T20:22:46.670Z,88.33
2019-06-08T20:25:22.918Z,101.38
2019-06-08T20:27:59.862Z,88.63
2019-06-08T20:30:37.642Z,103.12
2019-06-08T20:33:13.309Z,102.15
2019-06-08T20:35:51.792Z,95.07
2019-06-08T20:38:35.254Z,90.45
2019-06-08T20:43:38.178Z,93.17
2019-06-08T20:48:50.463Z,104.50
2019-06-08T20:54:04.166Z,100.95
2019-06-08T20:56:42.905Z,101.00
2019-06-08T20:59:29.838Z,102.70
2019-06-08T21:02:01.589Z,97.17
2019-06-08T21:04:38.415Z,96.82
2019-06-08T21:07:14.303Z,101.20
2019-06-08T21:09:52.004Z,104.05
2019-06-08T21:15:03.629Z,106.55
2019-06-08T21:17:39.540Z,102.95
2019-06-08T21:20:17.752Z,101.00
2019-06-08T21:22:59.491Z,114.00
2019-06-08T21:25:33.399Z,150.18
2019-06-08T21:30:46.476Z,110.37
2019-06-08T21:33:31.444Z,113.35
2019-06-08T21:36:08.791Z,124.55
2019-06-08T21:41:17.926Z,130.22
2019-06-08T21:44:00.037Z,133.03
2019-06-08T21:46:32.795Z,139.30
2019-06-08T21:49:08.694Z,149.53
2019-06-08T21:51:49.687Z,137.47
2019-06-08T21:54:22.539Z,139.90
2019-06-08T21:57:00.980Z,138.13
2019-06-08T21:59:37.882Z,150.20
2019-06-08T22:02:13.982Z,136.37
2019-06-08T22:04:53.787Z,141.07
2019-06-08T22:07:28.716Z,116.60
2019-06-08T22:10:07.259Z,138.75
2019-06-08T22:12:48.006Z,120.08
2019-06-08T22:15:23.909Z,106.85
2019-06-08T22:18:01.135Z,109.87
2019-06-08T22:20:40.732Z,104.35
2019-06-08T22:23:18.823Z,105.58
2019-06-08T22:25:59.825Z,110.92
2019-06-08T22:28:39.443Z,112.65
2019-06-08T22:31:17.110Z,120.60
2019-06-08T22:33:54.000Z,148.50
2019-06-08T22:36:30.371Z,148.10
2019-06-08T22:39:08.282Z,149.77
2019-06-08T22:41:49.311Z,177.97
2019-06-08T22:44:25.051Z,159.85
2019-06-08T22:47:03.625Z,159.57
2019-06-08T22:49:38.978Z,168.15
2019-06-08T22:52:18.516Z,177.40
2019-06-08T22:54:57.601Z,182.30
2019-06-08T22:57:31.319Z,190.95
2019-06-08T23:00:16.269Z,191.47
2019-06-08T23:02:49.340Z,184.87
2019-06-08T23:05:27.736Z,192.22
2019-06-08T23:08:09.344Z,203.92
2019-06-08T23:10:45.359Z,193.80
2019-06-08T23:13:23.900Z,201.07
2019-06-08T23:16:04.380Z,199.60
2019-06-08T23:18:47.634Z,202.55
2019-06-08T23:21:21.978Z,192.13
2019-06-08T23:24:01.048Z,177.50
2019-06-08T23:26:37.236Z,193.35
2019-06-08T23:29:14.495Z,175.03
2019-06-08T23:31:54.131Z,176.20
2019-06-08T23:34:31.345Z,162.85
2019-06-08T23:37:11.968Z,163.57
2019-06-08T23:39:53.122Z,169.93
2019-06-08T23:42:32.304Z,153.10
2019-06-08T23:45:11.518Z,145.05
2019-06-08T23:47:50.984Z,155.55
2019-06-08T23:50:28.064Z,160.80
2019-06-08T23:53:10.748Z,156.55
2019-06-08T23:55:47.917Z,156.55
2019-06-08T23:58:27.826Z,149.00
